createdAt,value
2023-05-03T00:01:19.023Z,10.35
2023-05-03T00:03:45.993Z,10.28
2023-05-03T00:06:16.283Z,10.20
2023-05-03T00:08:42.979Z,10.24
2023-05-03T00:11:09.903Z,10.30
2023-05-03T00:13:36.751Z,10.25
2023-05-03T00:16:03.622Z,10.15
2023-05-03T00:18:30.706Z,10.20
2023-05-03T00:20:59.455Z,10.09
2023-05-03T00:23:26.767Z,10.06
2023-05-03T00:25:57.437Z,10.09
2023-05-03T00:28:24.963Z,10.01
2023-05-03T00:30:52.586Z,10.02
2023-05-03T00:33:19.213Z,10.12
2023-05-03T00:35:45.797Z,10.05
2023-05-03T00:38:14.328Z,10.11
2023-05-03T00:40:41.044Z,9.93
2023-05-03T00:43:07.659Z,9.94
2023-05-03T00:45:34.671Z,9.82
2023-05-03T00:48:01.617Z,9.81
2023-05-03T00:50:28.567Z,9.81
2023-05-03T00:52:55.384Z,9.73
2023-05-03T00:55:22.208Z,9.68
2023-05-03T00:57:48.652Z,9.54
2023-05-03T01:00:15.593Z,9.58
2023-05-03T01:02:42.237Z,9.54
2023-05-03T01:05:09.095Z,9.52
2023-05-03T01:07:41.331Z,9.52
2023-05-03T01:10:21.629Z,9.40
2023-05-03T01:13:23.402Z,9.28
2023-05-03T01:16:11.866Z,9.25
2023-05-03T01:18:40.234Z,9.18
2023-05-03T01:21:09.185Z,9.07
2023-05-03T01:23:57.311Z,9.16
2023-05-03T01:26:26.029Z,9.18
2023-05-03T01:28:52.584Z,9.03
2023-05-03T01:31:26.711Z,8.78
2023-05-03T01:34:08.110Z,8.69
2023-05-03T01:36:35.492Z,8.74
2023-05-03T01:39:14.261Z,8.68
2023-05-03T01:41:42.069Z,8.67
2023-05-03T01:44:09.855Z,8.56
2023-05-03T01:46:42.755Z,8.43
2023-05-03T01:49:09.284Z,8.40
2023-05-03T01:51:35.853Z,8.33
2023-05-03T01:54:02.829Z,8.30
2023-05-03T01:56:30.698Z,8.31
2023-05-03T01:58:57.246Z,8.40
2023-05-03T02:01:23.745Z,8.37
2023-05-03T02:03:50.267Z,8.24
2023-05-03T02:06:16.832Z,8.24
2023-05-03T02:08:43.281Z,8.18
2023-05-03T02:11:09.701Z,8.20
2023-05-03T02:13:37.887Z,8.25
2023-05-03T02:16:04.750Z,8.30
2023-05-03T02:18:31.500Z,8.30
2023-05-03T02:20:58.020Z,8.37
2023-05-03T02:23:24.547Z,8.39
2023-05-03T02:25:51.136Z,8.46
2023-05-03T02:28:17.582Z,8.52
2023-05-03T02:30:44.239Z,8.26
2023-05-03T02:33:10.929Z,8.24
2023-05-03T02:35:37.445Z,8.32
2023-05-03T02:38:04.231Z,8.23
2023-05-03T02:40:30.703Z,8.06
2023-05-03T02:42:57.194Z,7.99
2023-05-03T02:45:24.315Z,7.95
2023-05-03T02:47:50.990Z,7.86
2023-05-03T02:50:17.525Z,7.87
2023-05-03T02:52:44.231Z,7.88
2023-05-03T02:55:10.672Z,7.90
2023-05-03T02:57:37.116Z,7.99
2023-05-03T03:00:05.870Z,8.08
2023-05-03T03:02:33.112Z,8.09
2023-05-03T03:04:59.618Z,8.05
2023-05-03T03:07:26.274Z,7.97
2023-05-03T03:09:52.735Z,8.02
2023-05-03T03:12:19.457Z,8.07
2023-05-03T03:14:45.994Z,8.22
2023-05-03T03:17:13.210Z,8.20
2023-05-03T03:19:39.823Z,8.19
2023-05-03T03:22:06.724Z,8.12
2023-05-03T03:24:33.447Z,8.02
2023-05-03T03:27:00.033Z,7.99
2023-05-03T03:29:27.960Z,8.03
2023-05-03T03:31:54.747Z,8.20
2023-05-03T03:34:21.328Z,8.07
2023-05-03T03:36:48.610Z,7.93
2023-05-03T03:39:15.329Z,8.00
2023-05-03T03:41:42.457Z,8.02
2023-05-03T03:44:09.114Z,8.00
2023-05-03T03:46:35.844Z,8.00
2023-05-03T03:49:02.522Z,8.13
2023-05-03T03:51:29.212Z,8.22
2023-05-03T03:53:55.853Z,8.35
2023-05-03T03:56:23.785Z,8.28
2023-05-03T03:58:50.434Z,8.14
2023-05-03T04:01:17.013Z,8.09
2023-05-03T04:03:47.382Z,7.83
2023-05-03T04:06:14.140Z,8.15
2023-05-03T04:08:40.978Z,8.28
2023-05-03T04:11:12.533Z,8.36
2023-05-03T04:13:39.369Z,8.31
2023-05-03T04:16:07.109Z,8.23
2023-05-03T04:18:33.655Z,8.11
2023-05-03T04:21:00.175Z,8.22
2023-05-03T04:23:26.831Z,8.16
2023-05-03T04:25:53.367Z,8.45
2023-05-03T04:28:20.561Z,8.52
2023-05-03T04:30:47.354Z,8.63
2023-05-03T04:33:14.032Z,8.80
2023-05-03T04:35:41.448Z,9.02
2023-05-03T04:38:09.008Z,9.29
2023-05-03T04:40:35.898Z,9.25
2023-05-03T04:43:02.429Z,9.09
2023-05-03T04:45:28.994Z,8.91
2023-05-03T04:47:55.726Z,8.91
2023-05-03T04:50:22.186Z,9.13
2023-05-03T04:52:48.697Z,9.21
2023-05-03T04:55:15.390Z,8.95
2023-05-03T04:57:42.441Z,8.91
2023-05-03T05:00:12.658Z,9.08
2023-05-03T05:02:39.260Z,8.79
2023-05-03T05:05:06.292Z,8.74
2023-05-03T05:07:32.871Z,8.77
2023-05-03T05:09:59.396Z,8.86
2023-05-03T05:12:26.148Z,8.76
2023-05-03T05:14:52.668Z,9.07
2023-05-03T05:17:19.354Z,9.31
2023-05-03T05:19:45.890Z,9.33
2023-05-03T05:22:12.447Z,9.36
2023-05-03T05:24:39.021Z,9.49
2023-05-03T05:27:06.685Z,9.55
2023-05-03T05:29:33.398Z,9.39
2023-05-03T05:32:01.862Z,9.49
2023-05-03T05:34:29.816Z,9.35
2023-05-03T05:36:58.849Z,9.36
2023-05-03T05:39:25.952Z,9.66
2023-05-03T05:41:52.498Z,9.79
2023-05-03T05:44:18.956Z,9.85
2023-05-03T05:46:46.539Z,10.04
2023-05-03T05:49:13.338Z,9.92
2023-05-03T05:51:40.060Z,9.92
2023-05-03T05:54:07.752Z,10.05
2023-05-03T05:56:34.398Z,10.77
2023-05-03T05:59:01.093Z,11.86
2023-05-03T06:01:27.791Z,13.14
2023-05-03T06:03:55.519Z,14.14
2023-05-03T06:06:22.159Z,14.97
2023-05-03T06:08:51.374Z,15.58
2023-05-03T06:11:18.237Z,16.62
2023-05-03T06:13:44.868Z,16.94
2023-05-03T06:16:11.867Z,17.44
2023-05-03T06:18:39.081Z,18.07
2023-05-03T06:21:05.830Z,18.84
2023-05-03T06:23:33.433Z,19.61
2023-05-03T06:25:59.965Z,19.43
2023-05-03T06:28:26.452Z,20.02
2023-05-03T06:30:53.010Z,20.55
2023-05-03T06:33:19.596Z,18.23
2023-05-03T06:35:47.213Z,19.25
2023-05-03T06:38:13.799Z,19.72
2023-05-03T06:40:41.639Z,19.63
2023-05-03T06:43:08.186Z,20.65
2023-05-03T06:45:34.725Z,22.43
2023-05-03T06:48:01.440Z,19.72
2023-05-03T06:50:28.116Z,18.63
2023-05-03T06:52:54.737Z,17.66
2023-05-03T06:55:21.402Z,18.81
2023-05-03T06:57:48.389Z,19.57
2023-05-03T07:00:15.964Z,21.42
2023-05-03T07:02:42.899Z,22.27
2023-05-03T07:05:09.928Z,19.07
2023-05-03T07:07:36.738Z,21.03
2023-05-03T07:10:03.940Z,20.33
2023-05-03T07:12:30.832Z,20.39
2023-05-03T07:14:57.830Z,21.87
2023-05-03T07:17:24.862Z,19.24
2023-05-03T07:19:51.794Z,19.43
2023-05-03T07:22:20.700Z,19.04
2023-05-03T07:24:47.409Z,20.35
2023-05-03T07:27:15.500Z,19.76
2023-05-03T07:29:42.041Z,17.99
2023-05-03T07:32:09.031Z,18.75
2023-05-03T07:34:35.559Z,21.09
2023-05-03T07:37:02.038Z,19.47
2023-05-03T07:39:28.595Z,16.29
2023-05-03T07:41:55.294Z,14.64
2023-05-03T07:44:22.456Z,14.94
2023-05-03T07:46:49.167Z,14.38
2023-05-03T07:49:16.203Z,14.09
2023-05-03T07:51:42.870Z,14.85
2023-05-03T07:54:09.497Z,14.98
2023-05-03T07:56:36.412Z,14.58
2023-05-03T07:59:09.086Z,14.55
2023-05-03T08:01:37.196Z,14.20
2023-05-03T08:04:04.685Z,14.26
2023-05-03T08:06:31.872Z,14.29
2023-05-03T08:08:58.804Z,13.93
2023-05-03T08:11:27.235Z,14.33
2023-05-03T08:13:53.753Z,14.16
2023-05-03T08:16:20.514Z,13.12
2023-05-03T08:18:47.328Z,13.43
2023-05-03T08:21:15.064Z,13.63
2023-05-03T08:23:42.464Z,13.49
2023-05-03T08:26:10.030Z,13.93
2023-05-03T08:28:36.590Z,14.57
2023-05-03T08:31:06.768Z,15.09
2023-05-03T08:33:33.490Z,15.29
2023-05-03T08:36:00.179Z,15.20
2023-05-03T08:38:27.302Z,14.74
2023-05-03T08:40:55.730Z,14.00
2023-05-03T08:43:24.063Z,14.76
2023-05-03T08:45:51.499Z,14.89
2023-05-03T08:48:18.447Z,14.24
2023-05-03T08:50:45.043Z,14.91
2023-05-03T08:53:12.170Z,14.62
2023-05-03T08:55:38.951Z,15.05
2023-05-03T08:58:12.462Z,14.16
2023-05-03T09:00:39.149Z,13.97
2023-05-03T09:03:07.547Z,13.49
2023-05-03T09:05:35.766Z,12.90
2023-05-03T09:08:06.540Z,13.51
2023-05-03T09:10:34.434Z,14.30
2023-05-03T09:13:02.371Z,14.31
2023-05-03T09:15:31.888Z,14.28
2023-05-03T09:18:18.220Z,14.27
2023-05-03T09:20:56.028Z,13.88
2023-05-03T09:23:26.686Z,13.55
2023-05-03T09:25:53.342Z,13.64
2023-05-03T09:28:20.874Z,13.55
2023-05-03T09:30:48.361Z,13.67
2023-05-03T09:33:22.149Z,14.06
2023-05-03T09:36:03.376Z,14.36
2023-05-03T09:38:32.385Z,13.81
2023-05-03T09:40:59.135Z,13.27
2023-05-03T09:43:25.779Z,13.90
2023-05-03T09:45:52.459Z,14.47
2023-05-03T09:48:23.476Z,14.35
2023-05-03T09:50:50.988Z,14.72
2023-05-03T09:53:18.984Z,14.69
2023-05-03T09:55:46.994Z,13.89
2023-05-03T09:58:13.851Z,14.13
2023-05-03T10:00:42.659Z,14.37
2023-05-03T10:03:15.396Z,14.20
2023-05-03T10:05:49.066Z,14.25
2023-05-03T10:08:28.352Z,14.16
2023-05-03T10:10:55.348Z,13.99
2023-05-03T10:13:22.851Z,14.55
2023-05-03T10:15:53.805Z,14.43
2023-05-03T10:18:21.270Z,14.52
2023-05-03T10:21:01.943Z,14.42
2023-05-03T10:23:28.596Z,14.77
2023-05-03T10:26:13.335Z,14.74
2023-05-03T10:28:40.097Z,14.66
2023-05-03T10:31:06.652Z,14.84
2023-05-03T10:33:36.689Z,14.19
2023-05-03T10:36:07.584Z,14.54
2023-05-03T10:38:34.092Z,14.48
2023-05-03T10:41:03.626Z,14.47
2023-05-03T10:43:33.589Z,14.78
2023-05-03T10:46:03.647Z,14.52
2023-05-03T10:48:34.695Z,14.64
2023-05-03T10:51:29.011Z,14.96
2023-05-03T10:53:55.906Z,14.65
2023-05-03T10:56:22.752Z,14.51
2023-05-03T10:58:56.637Z,13.80
2023-05-03T11:01:24.671Z,13.89
2023-05-03T11:04:10.181Z,14.48
2023-05-03T11:06:41.371Z,14.87
2023-05-03T11:09:10.013Z,14.88
2023-05-03T11:11:39.496Z,14.61
2023-05-03T11:14:07.468Z,15.23
2023-05-03T11:16:36.560Z,14.61
2023-05-03T11:19:03.857Z,14.73
2023-05-03T11:21:31.411Z,14.93
2023-05-03T11:23:59.209Z,14.83
2023-05-03T11:26:26.698Z,14.52
2023-05-03T11:28:53.994Z,14.62
2023-05-03T11:31:21.110Z,15.02
2023-05-03T11:33:49.468Z,15.25
2023-05-03T11:36:16.283Z,15.40
2023-05-03T11:38:42.881Z,15.55
2023-05-03T11:41:13.337Z,15.83
2023-05-03T11:43:49.449Z,15.63
2023-05-03T11:46:22.202Z,15.34
2023-05-03T11:48:48.931Z,14.48
2023-05-03T11:51:16.277Z,14.52
2023-05-03T11:53:44.067Z,14.49
2023-05-03T11:56:15.264Z,13.69
2023-05-03T11:58:58.637Z,13.85
2023-05-03T12:01:26.922Z,14.50
2023-05-03T12:03:57.653Z,14.57
2023-05-03T12:06:25.858Z,14.69
2023-05-03T12:08:54.699Z,14.50
2023-05-03T12:11:23.332Z,14.42
2023-05-03T12:14:02.813Z,14.39
2023-05-03T12:16:46.706Z,13.88
2023-05-03T12:19:24.286Z,14.20
2023-05-03T12:22:04.811Z,14.80
2023-05-03T12:24:39.398Z,14.95
2023-05-03T12:27:08.666Z,15.29
2023-05-03T12:29:35.675Z,14.75
2023-05-03T12:32:03.692Z,14.64
2023-05-03T12:34:35.587Z,15.10
2023-05-03T12:37:05.651Z,14.99
2023-05-03T12:39:33.700Z,14.57
2023-05-03T12:44:35.105Z,14.65
2023-05-03T12:47:02.963Z,15.09
2023-05-03T12:49:30.182Z,15.46
2023-05-03T12:54:33.376Z,15.12
2023-05-03T12:57:08.225Z,15.34
2023-05-03T12:59:41.781Z,15.45
2023-05-03T13:04:57.075Z,15.03
2023-05-03T13:07:29.532Z,14.81
2023-05-03T13:12:27.463Z,15.10
2023-05-03T13:14:54.938Z,14.80
2023-05-03T13:17:22.823Z,15.03
2023-05-03T13:19:51.174Z,15.09
2023-05-03T13:22:17.986Z,14.89
2023-05-03T13:24:46.048Z,14.93
2023-05-03T13:27:12.640Z,15.18
2023-05-03T13:29:39.892Z,15.20
2023-05-03T13:32:07.057Z,15.12
2023-05-03T13:34:34.174Z,15.00
2023-05-03T13:37:01.789Z,15.07
2023-05-03T13:39:28.472Z,15.08
2023-05-03T13:41:54.934Z,15.25
2023-05-03T13:44:25.159Z,15.59
2023-05-03T13:46:56.300Z,15.94
2023-05-03T13:49:22.783Z,15.04
2023-05-03T13:51:49.528Z,15.77
2023-05-03T13:54:16.230Z,16.23
2023-05-03T13:56:43.079Z,16.49
2023-05-03T13:59:11.928Z,16.60
2023-05-03T14:01:38.788Z,16.77
2023-05-03T14:04:05.749Z,16.23
2023-05-03T14:06:33.546Z,17.16
2023-05-03T14:09:01.619Z,17.37
2023-05-03T14:11:28.639Z,17.19
2023-05-03T14:13:57.326Z,17.32
2023-05-03T14:16:36.432Z,16.80
2023-05-03T14:19:07.910Z,17.01
2023-05-03T14:21:34.718Z,17.57
2023-05-03T14:24:01.720Z,17.66
2023-05-03T14:26:29.564Z,16.60
2023-05-03T14:28:56.337Z,16.31
2023-05-03T14:31:22.983Z,16.55
2023-05-03T14:33:49.545Z,16.80
2023-05-03T14:36:16.223Z,16.91
2023-05-03T14:38:42.696Z,17.29
2023-05-03T14:41:09.431Z,17.80
2023-05-03T14:43:36.112Z,17.83
2023-05-03T14:46:02.689Z,17.21
2023-05-03T14:48:29.222Z,17.40
2023-05-03T14:50:56.446Z,16.92
2023-05-03T14:53:23.431Z,16.79
2023-05-03T14:55:50.206Z,17.13
2023-05-03T14:58:17.107Z,17.36
2023-05-03T15:00:43.859Z,16.91
2023-05-03T15:03:12.305Z,16.48
2023-05-03T15:05:45.822Z,17.07
2023-05-03T15:08:15.359Z,17.12
2023-05-03T15:10:44.369Z,16.71
2023-05-03T15:13:11.979Z,17.16
2023-05-03T15:15:39.806Z,16.81
2023-05-03T15:18:07.995Z,16.51
2023-05-03T15:20:35.085Z,16.82
2023-05-03T15:23:03.220Z,16.62
2023-05-03T15:25:30.040Z,16.94
2023-05-03T15:27:56.724Z,17.09
2023-05-03T15:30:23.354Z,17.06
2023-05-03T15:32:51.276Z,16.93
2023-05-03T15:35:18.223Z,17.19
2023-05-03T15:37:45.149Z,16.21
2023-05-03T15:40:13.287Z,15.80
2023-05-03T15:42:39.941Z,16.05
2023-05-03T15:45:08.699Z,15.73
2023-05-03T15:47:35.677Z,15.28
2023-05-03T15:50:02.979Z,15.32
2023-05-03T15:52:29.936Z,15.51
2023-05-03T15:54:56.534Z,15.78
2023-05-03T15:57:23.645Z,16.10
2023-05-03T15:59:50.337Z,15.79
2023-05-03T16:02:17.033Z,15.87
2023-05-03T16:04:43.582Z,16.12
2023-05-03T16:07:10.133Z,15.81
2023-05-03T16:09:36.733Z,15.63
2023-05-03T16:12:03.695Z,15.76
2023-05-03T16:14:30.534Z,15.61
2023-05-03T16:16:57.230Z,16.04
2023-05-03T16:19:23.951Z,15.91
2023-05-03T16:21:50.664Z,15.69
2023-05-03T16:24:18.576Z,15.99
2023-05-03T16:26:45.386Z,16.06
2023-05-03T16:29:11.941Z,15.71
2023-05-03T16:31:38.451Z,15.59
2023-05-03T16:34:05.122Z,15.73
2023-05-03T16:36:33.125Z,15.87
2023-05-03T16:38:59.735Z,15.72
2023-05-03T16:41:26.460Z,15.43
2023-05-03T16:43:52.968Z,15.62
2023-05-03T16:46:20.221Z,15.73
2023-05-03T16:48:48.132Z,15.80
2023-05-03T16:51:14.812Z,15.52
2023-05-03T16:53:41.521Z,15.44
2023-05-03T16:56:08.193Z,15.34
2023-05-03T16:58:34.904Z,15.07
2023-05-03T17:01:01.491Z,15.15
2023-05-03T17:03:28.261Z,15.04
2023-05-03T17:05:54.979Z,15.08
2023-05-03T17:08:21.751Z,15.04
2023-05-03T17:10:48.475Z,14.99
2023-05-03T17:13:16.546Z,15.00
2023-05-03T17:15:43.320Z,14.91
2023-05-03T17:18:10.122Z,14.84
2023-05-03T17:20:37.084Z,14.83
2023-05-03T17:23:03.629Z,14.74
2023-05-03T17:25:30.186Z,14.69
2023-05-03T17:27:57.117Z,14.53
2023-05-03T17:30:23.653Z,14.37
2023-05-03T17:32:50.238Z,14.16
2023-05-03T17:35:17.099Z,14.00
2023-05-03T17:37:44.883Z,13.94
2023-05-03T17:40:12.245Z,13.94
2023-05-03T17:42:39.124Z,13.95
2023-05-03T17:45:06.635Z,13.86
2023-05-03T17:47:33.154Z,13.86
2023-05-03T17:49:59.792Z,13.60
2023-05-03T17:52:26.356Z,13.38
2023-05-03T17:54:53.010Z,13.24
2023-05-03T17:57:22.120Z,13.13
2023-05-03T17:59:48.707Z,13.10
2023-05-03T18:02:15.319Z,12.94
2023-05-03T18:04:41.892Z,12.77
2023-05-03T18:07:08.410Z,12.76
2023-05-03T18:09:34.971Z,12.66
2023-05-03T18:12:02.003Z,12.50
2023-05-03T18:14:28.531Z,12.45
2023-05-03T18:16:55.447Z,12.40
2023-05-03T18:19:22.696Z,12.29
2023-05-03T18:21:49.237Z,12.16
2023-05-03T18:24:16.301Z,12.09
2023-05-03T18:26:43.094Z,11.96
2023-05-03T18:29:10.008Z,11.78
2023-05-03T18:31:36.744Z,11.71
2023-05-03T18:34:03.650Z,11.57
2023-05-03T18:36:31.215Z,11.46
2023-05-03T18:38:57.738Z,11.45
2023-05-03T18:41:24.523Z,11.31
2023-05-03T18:43:52.006Z,11.25
2023-05-03T18:46:19.320Z,11.14
2023-05-03T18:48:47.552Z,11.05
2023-05-03T18:51:14.312Z,11.02
2023-05-03T18:53:40.882Z,10.88
2023-05-03T18:56:07.702Z,10.84
2023-05-03T18:58:34.224Z,10.70
2023-05-03T19:01:00.999Z,10.67
2023-05-03T19:03:29.512Z,10.58
2023-05-03T19:06:00.061Z,10.46
2023-05-03T19:08:26.629Z,10.40
2023-05-03T19:10:53.365Z,10.35
2023-05-03T19:13:19.938Z,10.22
2023-05-03T19:15:47.014Z,10.11
2023-05-03T19:18:16.017Z,10.03
2023-05-03T19:20:43.669Z,9.95
2023-05-03T19:23:10.216Z,9.91
2023-05-03T19:25:36.956Z,9.84
2023-05-03T19:28:05.235Z,9.81
2023-05-03T19:30:31.849Z,9.78
2023-05-03T19:32:58.658Z,9.66
2023-05-03T19:35:25.274Z,9.56
2023-05-03T19:37:51.880Z,9.52
2023-05-03T19:40:18.690Z,9.46
2023-05-03T19:42:45.470Z,9.34
2023-05-03T19:45:12.364Z,9.32
2023-05-03T19:47:39.200Z,9.27
2023-05-03T19:50:06.736Z,9.28
2023-05-03T19:52:33.382Z,9.36
2023-05-03T19:55:00.169Z,9.34
2023-05-03T19:57:26.872Z,9.29
2023-05-03T19:59:53.456Z,9.20
2023-05-03T20:02:22.520Z,9.08
2023-05-03T20:04:50.617Z,8.97
2023-05-03T20:07:17.077Z,8.95
2023-05-03T20:09:43.652Z,8.86
2023-05-03T20:12:10.956Z,8.82
2023-05-03T20:14:38.252Z,8.78
2023-05-03T20:17:06.101Z,8.71
2023-05-03T20:19:32.574Z,8.62
2023-05-03T20:21:59.019Z,8.61
2023-05-03T20:24:25.670Z,8.60
2023-05-03T20:26:53.198Z,8.51
2023-05-03T20:29:19.757Z,8.52
2023-05-03T20:31:48.415Z,8.41
2023-05-03T20:34:15.153Z,8.27
2023-05-03T20:36:41.707Z,8.25
2023-05-03T20:39:09.604Z,8.24
2023-05-03T20:41:36.098Z,8.18
2023-05-03T20:44:02.576Z,8.15
2023-05-03T20:46:29.251Z,8.12
2023-05-03T20:48:56.048Z,8.04
2023-05-03T20:51:23.204Z,7.96
2023-05-03T20:53:49.982Z,7.93
2023-05-03T20:56:16.646Z,7.87
2023-05-03T20:58:43.272Z,7.84
2023-05-03T21:01:10.266Z,7.75
2023-05-03T21:03:37.026Z,7.75
2023-05-03T21:06:05.623Z,7.69
2023-05-03T21:08:32.839Z,7.72
2023-05-03T21:10:59.549Z,7.71
2023-05-03T21:13:26.113Z,7.73
2023-05-03T21:15:52.624Z,7.73
2023-05-03T21:18:19.454Z,7.64
2023-05-03T21:20:46.607Z,7.63
2023-05-03T21:23:13.362Z,7.58
2023-05-03T21:25:39.856Z,7.53
2023-05-03T21:28:06.308Z,7.50
2023-05-03T21:30:32.972Z,7.44
2023-05-03T21:32:59.441Z,7.41
2023-05-03T21:35:25.974Z,7.39
2023-05-03T21:37:52.524Z,7.28
2023-05-03T21:40:21.331Z,7.37
2023-05-03T21:42:49.969Z,7.40
2023-05-03T21:45:16.812Z,7.30
2023-05-03T21:47:43.358Z,7.24
2023-05-03T21:50:10.017Z,7.19
2023-05-03T21:52:36.896Z,7.11
2023-05-03T21:55:03.908Z,7.00
2023-05-03T21:57:32.489Z,7.02
2023-05-03T21:59:59.781Z,7.00
2023-05-03T22:02:26.356Z,6.95
2023-05-03T22:04:52.972Z,6.95
2023-05-03T22:07:19.649Z,6.86
2023-05-03T22:09:48.917Z,6.86
2023-05-03T22:14:45.825Z,6.77
2023-05-03T22:17:12.347Z,6.77
2023-05-03T22:19:38.882Z,6.74
2023-05-03T22:22:05.474Z,6.73
2023-05-03T22:24:31.984Z,6.73
2023-05-03T22:26:59.179Z,6.71
2023-05-03T22:29:26.438Z,6.68
2023-05-03T22:31:53.087Z,6.68
2023-05-03T22:34:19.602Z,6.68
2023-05-03T22:36:46.166Z,6.70
2023-05-03T22:39:12.638Z,6.68
2023-05-03T22:41:39.118Z,6.68
2023-05-03T22:44:05.742Z,6.66
2023-05-03T22:46:32.196Z,6.56
2023-05-03T22:48:58.704Z,6.49
2023-05-03T22:51:25.373Z,6.45
2023-05-03T22:53:51.903Z,6.43
2023-05-03T22:56:18.437Z,6.40
2023-05-03T22:58:46.808Z,6.37
2023-05-03T23:01:13.634Z,6.32
2023-05-03T23:03:41.124Z,6.29
2023-05-03T23:06:07.967Z,6.29
2023-05-03T23:08:34.523Z,6.23
2023-05-03T23:11:00.978Z,6.19
2023-05-03T23:13:27.467Z,6.21
2023-05-03T23:15:54.845Z,6.26
2023-05-03T23:18:21.489Z,6.21
2023-05-03T23:20:48.726Z,6.17
2023-05-03T23:23:16.193Z,6.15
2023-05-03T23:25:42.930Z,6.22
2023-05-03T23:28:09.670Z,6.14
2023-05-03T23:30:36.999Z,6.12
2023-05-03T23:33:04.206Z,6.08
2023-05-03T23:35:31.106Z,6.08
2023-05-03T23:37:57.702Z,5.93
2023-05-03T23:40:24.311Z,5.89
2023-05-03T23:42:51.061Z,5.82
2023-05-03T23:45:17.568Z,5.72
2023-05-03T23:47:44.129Z,5.65
2023-05-03T23:50:10.904Z,5.59
2023-05-03T23:52:37.387Z,5.55
2023-05-03T23:55:05.076Z,5.49
2023-05-03T23:57:31.535Z,5.48
2023-05-03T23:59:58.066Z,5.40
